sensor_id;sensor_type;location;lat;lon;timestamp;pressure;altitude;pressure_sealevel;temperature;humidity
12879;BME280;20617;49.476;10.986;2023-04-27T00:00:35;98396.16;;;8.63;100.00
12879;BME280;20617;49.476;10.986;2023-04-27T00:02:39;98397.09;;;8.60;100.00
12879;BME280;20617;49.476;10.986;2023-04-27T00:04:45;98395.59;;;8.53;100.00
12879;BME280;20617;49.476;10.986;2023-04-27T00:06:51;98387.06;;;8.49;100.00
12879;BME280;20617;49.476;10.986;2023-04-27T00:08:56;98385.66;;;8.39;100.00
12879;BME280;20617;49.476;10.986;2023-04-27T00:11:01;98390.84;;;8.37;100.00
12879;BME280;20617;49.476;10.986;2023-04-27T00:13:08;98388.34;;;8.34;100.00
12879;BME280;20617;49.476;10.986;2023-04-27T00:15:13;98384.81;;;8.37;100.00
12879;BME280;20617;49.476;10.986;2023-04-27T00:17:18;98387.41;;;8.37;100.00
12879;BME280;20617;49.476;10.986;2023-04-27T00:19:23;98384.88;;;8.35;100.00
12879;BME280;20617;49.476;10.986;2023-04-27T00:21:29;98382.41;;;8.31;100.00
12879;BME280;20617;49.476;10.986;2023-04-27T00:23:37;98387.50;;;8.34;100.00
12879;BME280;20617;49.476;10.986;2023-04-27T00:25:42;98383.16;;;8.34;100.00
12879;BME280;20617;49.476;10.986;2023-04-27T00:27:47;98378.88;;;8.33;100.00
12879;BME280;20617;49.476;10.986;2023-04-27T00:29:55;98373.59;;;8.36;100.00
12879;BME280;20617;49.476;10.986;2023-04-27T00:32:01;98371.84;;;8.38;100.00
12879;BME280;20617;49.476;10.986;2023-04-27T00:34:06;98369.09;;;8.43;100.00
12879;BME280;20617;49.476;10.986;2023-04-27T00:36:10;98371.59;;;8.46;100.00
12879;BME280;20617;49.476;10.986;2023-04-27T00:38:16;98369.78;;;8.48;100.00
12879;BME280;20617;49.476;10.986;2023-04-27T00:40:21;98367.28;;;8.47;100.00
12879;BME280;20617;49.476;10.986;2023-04-27T00:42:26;98370.81;;;8.44;100.00
12879;BME280;20617;49.476;10.986;2023-04-27T00:44:32;98363.75;;;8.48;100.00
12879;BME280;20617;49.476;10.986;2023-04-27T00:46:43;98367.84;;;8.55;100.00
12879;BME280;20617;49.476;10.986;2023-04-27T00:48:48;98369.50;;;8.57;100.00
12879;BME280;20617;49.476;10.986;2023-04-27T00:50:53;98364.41;;;8.54;100.00
12879;BME280;20617;49.476;10.986;2023-04-27T00:52:58;98366.13;;;8.55;100.00
12879;BME280;20617;49.476;10.986;2023-04-27T00:55:06;98362.63;;;8.56;100.00
12879;BME280;20617;49.476;10.986;2023-04-27T00:57:14;98359.22;;;8.54;100.00
12879;BME280;20617;49.476;10.986;2023-04-27T00:59:19;98357.56;;;8.52;100.00
12879;BME280;20617;49.476;10.986;2023-04-27T01:01:25;98352.38;;;8.52;100.00
12879;BME280;20617;49.476;10.986;2023-04-27T01:03:33;98358.38;;;8.54;100.00
12879;BME280;20617;49.476;10.986;2023-04-27T01:05:38;98358.28;;;8.57;100.00
12879;BME280;20617;49.476;10.986;2023-04-27T01:07:43;98358.38;;;8.54;100.00
12879;BME280;20617;49.476;10.986;2023-04-27T01:09:48;98359.28;;;8.53;100.00
12879;BME280;20617;49.476;10.986;2023-04-27T01:11:53;98361.09;;;8.49;100.00
12879;BME280;20617;49.476;10.986;2023-04-27T01:14:02;98360.44;;;8.44;100.00
12879;BME280;20617;49.476;10.986;2023-04-27T01:16:08;98351.03;;;8.40;100.00
12879;BME280;20617;49.476;10.986;2023-04-27T01:18:13;98359.72;;;8.37;100.00
12879;BME280;20617;49.476;10.986;2023-04-27T01:20:21;98358.13;;;8.33;100.00
12879;BME280;20617;49.476;10.986;2023-04-27T01:22:26;98358.09;;;8.35;100.00
12879;BME280;20617;49.476;10.986;2023-04-27T01:24:34;98362.38;;;8.36;100.00
12879;BME280;20617;49.476;10.986;2023-04-27T01:26:39;98362.25;;;8.41;100.00
12879;BME280;20617;49.476;10.986;2023-04-27T01:28:44;98359.66;;;8.41;100.00
12879;BME280;20617;49.476;10.986;2023-04-27T01:30:49;98364.00;;;8.40;100.00
12879;BME280;20617;49.476;10.986;2023-04-27T01:32:54;98360.56;;;8.39;100.00
12879;BME280;20617;49.476;10.986;2023-04-27T01:34:59;98362.31;;;8.39;100.00
12879;BME280;20617;49.476;10.986;2023-04-27T01:37:04;98360.56;;;8.39;100.00
12879;BME280;20617;49.476;10.986;2023-04-27T01:39:09;98377.28;;;8.29;100.00
12879;BME280;20617;49.476;10.986;2023-04-27T01:41:17;98371.06;;;8.35;100.00
12879;BME280;20617;49.476;10.986;2023-04-27T01:43:22;98368.34;;;8.39;100.00
12879;BME280;20617;49.476;10.986;2023-04-27T01:45:27;98372.38;;;8.48;100.00
12879;BME280;20617;49.476;10.986;2023-04-27T01:47:34;98371.41;;;8.52;100.00
12879;BME280;20617;49.476;10.986;2023-04-27T01:49:39;98370.44;;;8.55;100.00
12879;BME280;20617;49.476;10.986;2023-04-27T01:52:02;98377.09;;;8.35;100.00
12879;BME280;20617;49.476;10.986;2023-04-27T01:54:07;98374.63;;;8.31;100.00
12879;BME280;20617;49.476;10.986;2023-04-27T01:56:12;98372.88;;;8.31;100.00
12879;BME280;20617;49.476;10.986;2023-04-27T01:58:20;98380.56;;;8.34;100.00
12879;BME280;20617;49.476;10.986;2023-04-27T02:00:25;98384.88;;;8.35;100.00
12879;BME280;20617;49.476;10.986;2023-04-27T02:02:30;98378.13;;;8.30;100.00
12879;BME280;20617;49.476;10.986;2023-04-27T02:04:35;98372.97;;;8.28;100.00
12879;BME280;20617;49.476;10.986;2023-04-27T02:06:41;98376.38;;;8.30;100.00
12879;BME280;20617;49.476;10.986;2023-04-27T02:08:47;98376.38;;;8.30;100.00
12879;BME280;20617;49.476;10.986;2023-04-27T02:10:52;98376.38;;;8.30;100.00
12879;BME280;20617;49.476;10.986;2023-04-27T02:12:57;98375.75;;;8.22;100.00
12879;BME280;20617;49.476;10.986;2023-04-27T02:15:06;98370.88;;;8.13;100.00
12879;BME280;20617;49.476;10.986;2023-04-27T02:17:12;98379.69;;;8.07;100.00
12879;BME280;20617;49.476;10.986;2023-04-27T02:19:17;98376.69;;;7.91;100.00
12879;BME280;20617;49.476;10.986;2023-04-27T02:21:23;98375.03;;;7.89;100.00
12879;BME280;20617;49.476;10.986;2023-04-27T02:23:30;98371.56;;;7.90;100.00
12879;BME280;20617;49.476;10.986;2023-04-27T02:25:35;98376.78;;;7.88;100.00
12879;BME280;20617;49.476;10.986;2023-04-27T02:27:43;98370.72;;;7.89;100.00
12879;BME280;20617;49.476;10.986;2023-04-27T02:29:49;98374.28;;;7.85;100.00
12879;BME280;20617;49.476;10.986;2023-04-27T02:31:59;98372.63;;;7.83;100.00
12879;BME280;20617;49.476;10.986;2023-04-27T02:34:07;98372.63;;;7.83;100.00
12879;BME280;20617;49.476;10.986;2023-04-27T02:36:12;98377.94;;;7.78;100.00
12879;BME280;20617;49.476;10.986;2023-04-27T02:38:17;98375.41;;;7.77;100.00
12879;BME280;20617;49.476;10.986;2023-04-27T02:40:22;98385.00;;;7.73;100.00
12879;BME280;20617;49.476;10.986;2023-04-27T02:42:28;98390.31;;;7.68;100.00
12879;BME280;20617;49.476;10.986;2023-04-27T02:44:33;98386.94;;;7.65;100.00
12879;BME280;20617;49.476;10.986;2023-04-27T02:46:38;98386.09;;;7.64;100.00
12879;BME280;20617;49.476;10.986;2023-04-27T02:48:46;98390.44;;;7.64;100.00
12879;BME280;20617;49.476;10.986;2023-04-27T02:50:51;98389.69;;;7.60;100.00
12879;BME280;20617;49.476;10.986;2023-04-27T02:52:56;98384.53;;;7.59;100.00
12879;BME280;20617;49.476;10.986;2023-04-27T02:55:01;98388.94;;;7.55;100.00
12879;BME280;20617;49.476;10.986;2023-04-27T02:57:06;98384.75;;;7.51;100.00
12879;BME280;20617;49.476;10.986;2023-04-27T02:59:11;98384.94;;;7.45;100.00
12879;BME280;20617;49.476;10.986;2023-04-27T03:01:16;98391.16;;;7.38;100.00
12879;BME280;20617;49.476;10.986;2023-04-27T03:03:22;98396.41;;;7.35;100.00
12879;BME280;20617;49.476;10.986;2023-04-27T03:05:30;98398.28;;;7.30;100.00
12879;BME280;20617;49.476;10.986;2023-04-27T03:07:35;98395.75;;;7.26;100.00
12879;BME280;20617;49.476;10.986;2023-04-27T03:09:39;98392.34;;;7.26;100.00
12879;BME280;20617;49.476;10.986;2023-04-27T03:11:46;98390.59;;;7.26;100.00
12879;BME280;20617;49.476;10.986;2023-04-27T03:13:51;98382.91;;;7.23;100.00
12879;BME280;20617;49.476;10.986;2023-04-27T03:15:57;98383.72;;;7.25;100.00
12879;BME280;20617;49.476;10.986;2023-04-27T03:18:02;98394.91;;;7.26;100.00
12879;BME280;20617;49.476;10.986;2023-04-27T03:20:09;98395.75;;;7.26;100.00
12879;BME280;20617;49.476;10.986;2023-04-27T03:22:17;98399.25;;;7.25;100.00
12879;BME280;20617;49.476;10.986;2023-04-27T03:24:22;98400.09;;;7.26;100.00
12879;BME280;20617;49.476;10.986;2023-04-27T03:26:28;98396.63;;;7.27;100.00
12879;BME280;20617;49.476;10.986;2023-04-27T03:28:33;98395.69;;;7.30;100.00
12879;BME280;20617;49.476;10.986;2023-04-27T03:30:38;98398.09;;;7.36;100.00
12879;BME280;20617;49.476;10.986;2023-04-27T03:32:44;98396.22;;;7.42;100.00
12879;BME280;20617;49.476;10.986;2023-04-27T03:34:49;98398.75;;;7.44;100.00
12879;BME280;20617;49.476;10.986;2023-04-27T03:36:54;98396.09;;;7.47;100.00
12879;BME280;20617;49.476;10.986;2023-04-27T03:39:01;98400.31;;;7.51;100.00
12879;BME280;20617;49.476;10.986;2023-04-27T03:41:08;98402.81;;;7.54;100.00
12879;BME280;20617;49.476;10.986;2023-04-27T03:43:13;98401.88;;;7.57;100.00
12879;BME280;20617;49.476;10.986;2023-04-27T03:45:18;98410.44;;;7.59;100.00
12879;BME280;20617;49.476;10.986;2023-04-27T03:47:23;98417.38;;;7.58;100.00
12879;BME280;20617;49.476;10.986;2023-04-27T03:49:28;98416.72;;;7.50;100.00
12879;BME280;20617;49.476;10.986;2023-04-27T03:51:33;98417.09;;;7.36;100.00
12879;BME280;20617;49.476;10.986;2023-04-27T03:53:43;98425.81;;;7.34;100.00
12879;BME280;20617;49.476;10.986;2023-04-27T03:55:51;98423.06;;;7.38;100.00
12879;BME280;20617;49.476;10.986;2023-04-27T03:57:56;98421.91;;;7.50;100.00
12879;BME280;20617;49.476;10.986;2023-04-27T04:00:01;98432.88;;;7.60;100.00
12879;BME280;20617;49.476;10.986;2023-04-27T04:02:15;98421.44;;;7.67;100.00
12879;BME280;20617;49.476;10.986;2023-04-27T04:04:20;98424.84;;;7.69;100.00
12879;BME280;20617;49.476;10.986;2023-04-27T04:06:25;98421.44;;;7.67;100.00
12879;BME280;20617;49.476;10.986;2023-04-27T04:08:32;98423.94;;;7.70;100.00
12879;BME280;20617;49.476;10.986;2023-04-27T04:10:36;98425.78;;;7.66;100.00
12879;BME280;20617;49.476;10.986;2023-04-27T04:12:48;98420.56;;;7.68;100.00
12879;BME280;20617;49.476;10.986;2023-04-27T04:14:53;98421.34;;;7.70;100.00
12879;BME280;20617;49.476;10.986;2023-04-27T04:16:58;98412.66;;;7.72;100.00
12879;BME280;20617;49.476;10.986;2023-04-27T04:19:05;98422.16;;;7.72;100.00
12879;BME280;20617;49.476;10.986;2023-04-27T04:21:10;98404.06;;;7.70;100.00
12879;BME280;20617;49.476;10.986;2023-04-27T04:23:16;98407.53;;;7.71;100.00
12879;BME280;20617;49.476;10.986;2023-04-27T04:25:21;98409.97;;;7.76;100.00
12879;BME280;20617;49.476;10.986;2023-04-27T04:27:27;98416.91;;;7.75;100.00
12879;BME280;20617;49.476;10.986;2023-04-27T04:29:35;98404.88;;;7.72;100.00
12879;BME280;20617;49.476;10.986;2023-04-27T04:31:39;98412.72;;;7.71;100.00
12879;BME280;20617;49.476;10.986;2023-04-27T04:33:45;98413.41;;;7.76;100.00
12879;BME280;20617;49.476;10.986;2023-04-27T04:35:50;98414.31;;;7.75;100.00
12879;BME280;20617;49.476;10.986;2023-04-27T04:37:55;98416.78;;;7.80;100.00
12879;BME280;20617;49.476;10.986;2023-04-27T04:40:03;98414.00;;;7.86;100.00
12879;BME280;20617;49.476;10.986;2023-04-27T04:42:11;98415.75;;;7.85;100.00
12879;BME280;20617;49.476;10.986;2023-04-27T04:44:17;98414.03;;;7.84;100.00
12879;BME280;20617;49.476;10.986;2023-04-27T04:46:25;98417.56;;;7.82;100.00
12879;BME280;20617;49.476;10.986;2023-04-27T04:48:31;98421.09;;;7.79;100.00
12879;BME280;20617;49.476;10.986;2023-04-27T04:50:38;98422.16;;;7.72;100.00
12879;BME280;20617;49.476;10.986;2023-04-27T04:52:43;98420.50;;;7.69;100.00
12879;BME280;20617;49.476;10.986;2023-04-27T04:54:50;98428.41;;;7.65;100.00
12879;BME280;20617;49.476;10.986;2023-04-27T04:56:55;98413.66;;;7.67;100.00
12879;BME280;20617;49.476;10.986;2023-04-27T04:59:01;98424.00;;;7.68;100.00
12879;BME280;20617;49.476;10.986;2023-04-27T05:01:07;98421.44;;;7.67;100.00
12879;BME280;20617;49.476;10.986;2023-04-27T05:03:15;98417.16;;;7.66;100.00
12879;BME280;20617;49.476;10.986;2023-04-27T05:05:20;98416.22;;;7.68;100.00
12879;BME280;20617;49.476;10.986;2023-04-27T05:07:25;98411.88;;;7.69;100.00
12879;BME280;20617;49.476;10.986;2023-04-27T05:09:30;98417.84;;;7.72;100.00
12879;BME280;20617;49.476;10.986;2023-04-27T05:11:35;98419.59;;;7.72;100.00
12879;BME280;20617;49.476;10.986;2023-04-27T05:13:41;98424.97;;;7.64;100.00
12879;BME280;20617;49.476;10.986;2023-04-27T05:15:46;98431.88;;;7.65;100.00
12879;BME280;20617;49.476;10.986;2023-04-27T05:17:51;98430.84;;;7.71;100.00
12879;BME280;20617;49.476;10.986;2023-04-27T05:19:59;98433.28;;;7.76;100.00
12879;BME280;20617;49.476;10.986;2023-04-27T05:22:05;98432.47;;;7.74;100.00
12879;BME280;20617;49.476;10.986;2023-04-27T05:24:10;98435.84;;;7.77;100.00
12879;BME280;20617;49.476;10.986;2023-04-27T05:26:16;98446.97;;;7.81;100.00
12879;BME280;20617;49.476;10.986;2023-04-27T05:28:22;98446.06;;;7.82;100.00
12879;BME280;20617;49.476;10.986;2023-04-27T05:30:27;98444.19;;;7.88;100.00
12879;BME280;20617;49.476;10.986;2023-04-27T05:32:32;98445.16;;;7.84;100.00
12879;BME280;20617;49.476;10.986;2023-04-27T05:34:38;98453.06;;;7.80;100.00
12879;BME280;20617;49.476;10.986;2023-04-27T05:36:47;98455.47;;;7.86;100.00
12879;BME280;20617;49.476;10.986;2023-04-27T05:38:52;98452.53;;;7.67;100.00
12879;BME280;20617;49.476;10.986;2023-04-27T05:40:57;98460.63;;;7.55;100.00
12879;BME280;20617;49.476;10.986;2023-04-27T05:43:02;98452.78;;;7.58;100.00
12879;BME280;20617;49.476;10.986;2023-04-27T05:45:08;98447.09;;;7.76;100.00
12879;BME280;20617;49.476;10.986;2023-04-27T05:47:13;98452.66;;;7.93;100.00
12879;BME280;20617;49.476;10.986;2023-04-27T05:49:18;98454.13;;;8.02;100.00
12879;BME280;20617;49.476;10.986;2023-04-27T05:51:23;98459.78;;;8.16;100.00
12879;BME280;20617;49.476;10.986;2023-04-27T05:53:31;98465.66;;;8.23;100.00
12879;BME280;20617;49.476;10.986;2023-04-27T05:55:36;98463.94;;;8.22;100.00
12879;BME280;20617;49.476;10.986;2023-04-27T05:57:41;98462.91;;;8.28;100.00
12879;BME280;20617;49.476;10.986;2023-04-27T05:59:53;98458.34;;;8.36;100.00
12879;BME280;20617;49.476;10.986;2023-04-27T06:01:58;98462.53;;;8.42;100.00
12879;BME280;20617;49.476;10.986;2023-04-27T06:04:04;98464.88;;;8.49;100.00
12879;BME280;20617;49.476;10.986;2023-04-27T06:06:09;98473.53;;;8.50;100.00
12879;BME280;20617;49.476;10.986;2023-04-27T06:08:14;98464.72;;;8.55;100.00
12879;BME280;20617;49.476;10.986;2023-04-27T06:10:23;98467.78;;;8.68;100.00
12879;BME280;20617;49.476;10.986;2023-04-27T06:12:27;98461.34;;;8.52;100.00
12879;BME280;20617;49.476;10.986;2023-04-27T06:14:35;98464.28;;;8.69;100.00
12879;BME280;20617;49.476;10.986;2023-04-27T06:16:40;98467.25;;;8.85;100.00
12879;BME280;20617;49.476;10.986;2023-04-27T06:18:45;98470.25;;;8.99;100.00
12879;BME280;20617;49.476;10.986;2023-04-27T06:20:50;98467.47;;;9.05;100.00
12879;BME280;20617;49.476;10.986;2023-04-27T06:22:56;98466.63;;;9.05;100.00
12879;BME280;20617;49.476;10.986;2023-04-27T06:25:02;98467.13;;;9.16;100.00
12879;BME280;20617;49.476;10.986;2023-04-27T06:27:09;98468.16;;;9.37;100.00
12879;BME280;20617;49.476;10.986;2023-04-27T06:29:14;98468.63;;;9.48;100.00
12879;BME280;20617;49.476;10.986;2023-04-27T06:31:19;98466.66;;;9.55;100.00
12879;BME280;20617;49.476;10.986;2023-04-27T06:33:24;98464.22;;;9.50;100.00
12879;BME280;20617;49.476;10.986;2023-04-27T06:35:29;98462.94;;;9.62;100.00
12879;BME280;20617;49.476;10.986;2023-04-27T06:37:34;98468.34;;;9.81;100.00
12879;BME280;20617;49.476;10.986;2023-04-27T06:39:39;98468.59;;;9.98;100.00
12879;BME280;20617;49.476;10.986;2023-04-27T06:41:44;98469.44;;;9.99;100.00
12879;BME280;20617;49.476;10.986;2023-04-27T06:43:55;98472.16;;;9.96;100.00
12879;BME280;20617;49.476;10.986;2023-04-27T06:46:05;98472.94;;;9.98;100.00
12879;BME280;20617;49.476;10.986;2023-04-27T06:48:10;98474.75;;;9.96;100.00
12879;BME280;20617;49.476;10.986;2023-04-27T06:50:16;98475.97;;;10.09;100.00
12879;BME280;20617;49.476;10.986;2023-04-27T06:52:20;98471.19;;;10.22;100.00
12879;BME280;20617;49.476;10.986;2023-04-27T06:54:25;98469.44;;;10.23;100.00
12879;BME280;20617;49.476;10.986;2023-04-27T06:56:30;98469.19;;;10.30;100.00
12879;BME280;20617;49.476;10.986;2023-04-27T06:58:35;98470.41;;;10.43;100.00
12879;BME280;20617;49.476;10.986;2023-04-27T07:00:43;98464.84;;;10.53;100.00
12879;BME280;20617;49.476;10.986;2023-04-27T07:02:48;98467.44;;;10.53;100.00
12879;BME280;20617;49.476;10.986;2023-04-27T07:04:53;98467.41;;;10.54;100.00
12879;BME280;20617;49.476;10.986;2023-04-27T07:06:58;98458.56;;;10.58;100.00
12879;BME280;20617;49.476;10.986;2023-04-27T07:09:04;98458.88;;;10.73;100.00
12879;BME280;20617;49.476;10.986;2023-04-27T07:11:27;98453.91;;;10.88;100.00
12879;BME280;20617;49.476;10.986;2023-04-27T07:13:32;98458.88;;;10.95;100.00
12879;BME280;20617;49.476;10.986;2023-04-27T07:15:36;98463.41;;;11.12;100.00
12879;BME280;20617;49.476;10.986;2023-04-27T07:17:44;98457.69;;;11.24;100.00
12879;BME280;20617;49.476;10.986;2023-04-27T07:19:49;98465.53;;;11.22;100.00
12879;BME280;20617;49.476;10.986;2023-04-27T07:21:54;98460.75;;;11.33;100.00
12879;BME280;20617;49.476;10.986;2023-04-27T07:23:59;98463.03;;;11.41;100.00
12879;BME280;20617;49.476;10.986;2023-04-27T07:26:08;98461.94;;;11.47;100.00
12879;BME280;20617;49.476;10.986;2023-04-27T07:28:14;98461.44;;;11.37;100.00
12879;BME280;20617;49.476;10.986;2023-04-27T07:30:19;98469.34;;;11.36;100.00
12879;BME280;20617;49.476;10.986;2023-04-27T07:32:24;98470.84;;;11.41;100.00
12879;BME280;20617;49.476;10.986;2023-04-27T07:34:32;98469.09;;;11.42;100.00
12879;BME280;20617;49.476;10.986;2023-04-27T07:36:41;98472.75;;;11.38;100.00
12879;BME280;20617;49.476;10.986;2023-04-27T07:38:46;98475.16;;;11.42;100.00
12879;BME280;20617;49.476;10.986;2023-04-27T07:40:51;98477.44;;;11.50;100.00
12879;BME280;20617;49.476;10.986;2023-04-27T07:42:56;98481.56;;;11.55;100.00
12879;BME280;20617;49.476;10.986;2023-04-27T07:45:01;98483.38;;;11.53;100.00
12879;BME280;20617;49.476;10.986;2023-04-27T07:47:06;98481.59;;;11.54;99.76
12879;BME280;20617;49.476;10.986;2023-04-27T07:49:11;98484.91;;;11.57;99.05
12879;BME280;20617;49.476;10.986;2023-04-27T07:51:19;98482.31;;;11.57;96.59
12879;BME280;20617;49.476;10.986;2023-04-27T07:53:24;98480.09;;;11.69;96.21
12879;BME280;20617;49.476;10.986;2023-04-27T07:55:29;98481.16;;;11.85;96.60
12879;BME280;20617;49.476;10.986;2023-04-27T07:57:34;98484.22;;;11.95;96.61
12879;BME280;20617;49.476;10.986;2023-04-27T07:59:39;98482.34;;;11.98;94.49
12879;BME280;20617;49.476;10.986;2023-04-27T08:01:44;98479.66;;;12.00;94.54
12879;BME280;20617;49.476;10.986;2023-04-27T08:03:49;98482.81;;;12.07;92.92
12879;BME280;20617;49.476;10.986;2023-04-27T08:05:55;98482.91;;;12.05;88.35
12879;BME280;20617;49.476;10.986;2023-04-27T08:08:03;98479.19;;;12.11;88.38
12879;BME280;20617;49.476;10.986;2023-04-27T08:10:12;98484.31;;;12.12;87.85
12879;BME280;20617;49.476;10.986;2023-04-27T08:12:17;98483.06;;;12.21;87.64
12879;BME280;20617;49.476;10.986;2023-04-27T08:14:22;98484.81;;;12.20;84.83
12879;BME280;20617;49.476;10.986;2023-04-27T08:16:27;98483.13;;;12.19;85.05
12879;BME280;20617;49.476;10.986;2023-04-27T08:18:33;98483.56;;;12.29;85.58
12879;BME280;20617;49.476;10.986;2023-04-27T08:20:38;98487.47;;;12.39;87.15
12879;BME280;20617;49.476;10.986;2023-04-27T08:22:43;98478.91;;;12.36;85.80
12879;BME280;20617;49.476;10.986;2023-04-27T08:24:50;98482.94;;;12.43;87.47
12879;BME280;20617;49.476;10.986;2023-04-27T08:26:55;98476.28;;;12.36;85.44
12879;BME280;20617;49.476;10.986;2023-04-27T08:29:00;98476.44;;;12.33;84.02
12879;BME280;20617;49.476;10.986;2023-04-27T08:31:20;98475.38;;;12.37;81.28
12879;BME280;20617;49.476;10.986;2023-04-27T08:33:25;98475.72;;;12.29;80.90
12879;BME280;20617;49.476;10.986;2023-04-27T08:35:30;98469.25;;;12.38;81.17
12879;BME280;20617;49.476;10.986;2023-04-27T08:37:35;98474.03;;;12.47;79.63
12879;BME280;20617;49.476;10.986;2023-04-27T08:39:41;98474.88;;;12.48;76.52
12879;BME280;20617;49.476;10.986;2023-04-27T08:41:49;98474.53;;;12.55;76.48
12879;BME280;20617;49.476;10.986;2023-04-27T08:43:56;98472.75;;;12.56;75.58
12879;BME280;20617;49.476;10.986;2023-04-27T08:46:01;98469.00;;;12.61;71.90
12879;BME280;20617;49.476;10.986;2023-04-27T08:48:07;98475.72;;;12.67;68.74
12879;BME280;20617;49.476;10.986;2023-04-27T08:50:12;98473.44;;;12.78;67.50
12879;BME280;20617;49.476;10.986;2023-04-27T08:52:17;98478.53;;;12.81;64.67
12879;BME280;20617;49.476;10.986;2023-04-27T08:54:22;98472.53;;;12.79;64.00
12879;BME280;20617;49.476;10.986;2023-04-27T08:56:28;98469.91;;;12.79;63.39
12879;BME280;20617;49.476;10.986;2023-04-27T08:58:39;98464.66;;;12.98;64.39
12879;BME280;20617;49.476;10.986;2023-04-27T09:00:44;98463.22;;;13.10;60.62
12879;BME280;20617;49.476;10.986;2023-04-27T09:02:53;98463.69;;;13.18;65.48
12879;BME280;20617;49.476;10.986;2023-04-27T09:04:58;98457.31;;;13.24;62.20
12879;BME280;20617;49.476;10.986;2023-04-27T09:07:12;98467.97;;;13.38;61.48
12879;BME280;20617;49.476;10.986;2023-04-27T09:09:21;98456.78;;;13.52;61.51
12879;BME280;20617;49.476;10.986;2023-04-27T09:11:29;98459.53;;;13.66;59.29
12879;BME280;20617;49.476;10.986;2023-04-27T09:13:35;98452.00;;;13.77;58.19
12879;BME280;20617;49.476;10.986;2023-04-27T09:15:44;98456.00;;;13.85;55.03
12879;BME280;20617;49.476;10.986;2023-04-27T09:17:54;98452.84;;;13.78;53.58
12879;BME280;20617;49.476;10.986;2023-04-27T09:20:04;98454.13;;;13.87;54.03
12879;BME280;20617;49.476;10.986;2023-04-27T09:22:14;98445.09;;;13.92;53.81
12879;BME280;20617;49.476;10.986;2023-04-27T09:24:19;98447.84;;;14.07;53.96
12879;BME280;20617;49.476;10.986;2023-04-27T09:26:25;98442.88;;;14.18;52.22
12879;BME280;20617;49.476;10.986;2023-04-27T09:28:34;98442.38;;;14.27;53.01
12879;BME280;20617;49.476;10.986;2023-04-27T09:30:50;98443.81;;;14.33;50.86
12879;BME280;20617;49.476;10.986;2023-04-27T09:32:57;98429.22;;;14.29;49.86
12879;BME280;20617;49.476;10.986;2023-04-27T09:35:05;98426.00;;;14.39;50.62
12879;BME280;20617;49.476;10.986;2023-04-27T09:37:21;98428.44;;;14.42;50.56
12879;BME280;20617;49.476;10.986;2023-04-27T09:39:28;98427.72;;;14.56;50.62
12879;BME280;20617;49.476;10.986;2023-04-27T09:41:34;98430.66;;;14.66;48.77
12879;BME280;20617;49.476;10.986;2023-04-27T09:43:42;98422.13;;;14.62;47.13
12879;BME280;20617;49.476;10.986;2023-04-27T09:45:50;98422.56;;;14.70;48.39
12879;BME280;20617;49.476;10.986;2023-04-27T09:47:57;98417.13;;;14.89;49.04
12879;BME280;20617;49.476;10.986;2023-04-27T09:50:04;98422.03;;;14.96;46.16
12879;BME280;20617;49.476;10.986;2023-04-27T09:52:09;98417.75;;;15.09;47.09
12879;BME280;20617;49.476;10.986;2023-04-27T09:54:15;98413.50;;;15.22;45.94
12879;BME280;20617;49.476;10.986;2023-04-27T09:56:28;98409.13;;;15.37;44.96
12879;BME280;20617;49.476;10.986;2023-04-27T09:58:54;98407.72;;;15.46;44.80
12879;BME280;20617;49.476;10.986;2023-04-27T10:01:12;98406.41;;;15.53;44.28
12879;BME280;20617;49.476;10.986;2023-04-27T10:03:36;98409.53;;;15.59;44.23
12879;BME280;20617;49.476;10.986;2023-04-27T10:06:21;98402.13;;;15.66;44.11
12879;BME280;20617;49.476;10.986;2023-04-27T10:08:34;98404.69;;;15.68;44.35
12879;BME280;20617;49.476;10.986;2023-04-27T10:10:45;98406.38;;;15.69;43.93
12879;BME280;20617;49.476;10.986;2023-04-27T10:12:59;98408.31;;;15.65;42.19
12879;BME280;20617;49.476;10.986;2023-04-27T10:15:14;98407.97;;;15.71;42.58
12879;BME280;20617;49.476;10.986;2023-04-27T10:17:23;98410.44;;;15.44;42.65
12879;BME280;20617;49.476;10.986;2023-04-27T10:19:29;98404.38;;;15.58;42.46
12879;BME280;20617;49.476;10.986;2023-04-27T10:21:36;98406.75;;;15.32;42.15
12879;BME280;20617;49.476;10.986;2023-04-27T10:23:46;98399.47;;;15.37;42.98
12879;BME280;20617;49.476;10.986;2023-04-27T10:25:52;98403.13;;;15.49;43.51
12879;BME280;20617;49.476;10.986;2023-04-27T10:27:59;98400.53;;;15.63;43.36
12879;BME280;20617;49.476;10.986;2023-04-27T10:30:09;98400.75;;;15.75;42.59
12879;BME280;20617;49.476;10.986;2023-04-27T10:32:18;98403.16;;;15.63;43.47
12879;BME280;20617;49.476;10.986;2023-04-27T10:34:27;98401.94;;;15.55;40.60
12879;BME280;20617;49.476;10.986;2023-04-27T10:36:38;98403.81;;;15.67;41.13
12879;BME280;20617;49.476;10.986;2023-04-27T10:38:43;98394.94;;;15.70;41.19
12879;BME280;20617;49.476;10.986;2023-04-27T10:40:56;98391.03;;;15.77;41.26
12879;BME280;20617;49.476;10.986;2023-04-27T10:43:09;98392.44;;;15.82;41.48
12879;BME280;20617;49.476;10.986;2023-04-27T10:45:25;98392.88;;;15.75;41.65
12879;BME280;20617;49.476;10.986;2023-04-27T10:47:36;98395.47;;;15.60;42.34
12879;BME280;20617;49.476;10.986;2023-04-27T10:49:42;98394.31;;;15.36;44.06
12879;BME280;20617;49.476;10.986;2023-04-27T10:51:50;98394.66;;;15.30;45.56
12879;BME280;20617;49.476;10.986;2023-04-27T10:53:55;98392.91;;;15.30;46.41
12879;BME280;20617;49.476;10.986;2023-04-27T10:56:01;98388.69;;;15.28;46.03
12879;BME280;20617;49.476;10.986;2023-04-27T10:58:08;98381.69;;;15.12;45.05
12879;BME280;20617;49.476;10.986;2023-04-27T11:00:14;98381.97;;;15.08;46.31
12879;BME280;20617;49.476;10.986;2023-04-27T11:02:28;98386.59;;;15.19;45.61